Bendorf, Germany

04:49 AM CEST die 24o July, anno 2016 (GMT +0200)
Grenzhäuser Str | | Change Station

Elev 315 ft 50.42 °N, 7.58 °E | Updated 2 seconds ago

Mostly Cloudy
Plerumque Nubila
65.3 °F
Feels Like 65.3 °F
N
0.0
Ventus Variabilis Ventus from Inter Aquilonem et Eurum
Gusts 0.0 mph

Hodie
High -- | Low -- °F
--% Chance of Precip.
Yesterday
High -- | Low -- °F
Precip. -- in
Pressio 30.12 in
Visibilitas 1.2 milia passuum
Clouds Plerumque Nubila 100 ft
Frigus in quo Ros apparet 64 °F
Umor 95%
Rainfall 0.00 in
Snow Depth Not available.
5:46 AM 9:24 PM
Waning Gibbous, 80% visible
METAR EDFH 240220Z 32002KT 2000 R21/0600VP2000U BR BKN001 17/17 Q1020
Pressio 30.12 in
Visibilitas 1.2 milia passuum
Clouds Plerumque Nubila 100 ft
Frigus in quo Ros apparet 64 °F
Umor 95%
Rainfall 0.00 in
Snow Depth Not available.
5:46 AM 9:24 PM
Waning Gibbous, 80% visible
METAR EDFH 240220Z 32002KT 2000 R21/0600VP2000U BR BKN001 17/17 Q1020

10-Day Weather Forecast

×

Almanac

Astronomy

Jul. 24, 2016 Rise Set
Actual Time
Civil Twilight
Nautical Twilight
Astronomical Twilight
Moon
Length Of Visible Light
Length of Day
Tomorrow will be .
, % of the Moon is Illuminated

Today's Extremes

Country Highs Country Lows

Community

WunderPhotos

Upload Photos

1,927,004 photos uploaded!

WunderBlog® & News

Nearby

Air Quality

  Air Quality AQ Index Pollutant
Not available.

Snow Depth

Station Depth Elevation

Earthquake Activity

City Distance Mag. Time & Date
Minimum magnitude displayed is 2.5.

Coastal Water Temperatures

Locus Calor

Stations

Nearby Weather Stations

Station Location Temp Frigus Venti Frigus in quo Ros apparet Umor Ventus Precip. Elev Renovata Type